createdAt,value
2023-05-16T00:01:38.326Z,4.25
2023-05-16T00:04:05.965Z,4.77
2023-05-16T00:06:33.439Z,3.88
2023-05-16T00:09:00.538Z,3.95
2023-05-16T00:11:27.731Z,5.38
2023-05-16T00:13:54.748Z,4.32
2023-05-16T00:16:22.064Z,4.60
2023-05-16T00:18:50.460Z,4.45
2023-05-16T00:21:17.643Z,4.53
2023-05-16T00:23:44.837Z,3.72
2023-05-16T00:26:11.954Z,5.57
2023-05-16T00:28:43.975Z,3.77
2023-05-16T00:31:11.068Z,5.07
2023-05-16T00:33:38.056Z,4.82
2023-05-16T00:36:05.644Z,6.13
2023-05-16T00:38:32.688Z,5.10
2023-05-16T00:41:00.130Z,5.57
2023-05-16T00:43:27.229Z,5.10
2023-05-16T00:45:54.363Z,4.65
2023-05-16T00:48:21.581Z,4.80
2023-05-16T00:50:49.564Z,4.68
2023-05-16T00:53:16.949Z,4.33
2023-05-16T00:55:44.199Z,5.28
2023-05-16T00:58:15.057Z,4.70
2023-05-16T01:00:42.694Z,5.50
2023-05-16T01:03:09.966Z,6.13
2023-05-16T01:05:38.325Z,5.57
2023-05-16T01:08:06.379Z,10.95
2023-05-16T01:10:44.204Z,6.80
2023-05-16T01:13:43.656Z,5.72
2023-05-16T01:16:22.394Z,5.97
2023-05-16T01:19:06.155Z,5.43
2023-05-16T01:22:02.512Z,6.05
2023-05-16T01:24:35.052Z,6.45
2023-05-16T01:27:04.957Z,5.53
2023-05-16T01:29:33.963Z,5.53
2023-05-16T01:32:01.312Z,5.37
2023-05-16T01:34:28.456Z,5.53
2023-05-16T01:37:02.993Z,6.82
2023-05-16T01:39:37.424Z,6.97
2023-05-16T01:42:14.929Z,5.75
2023-05-16T01:44:49.856Z,7.27
2023-05-16T01:47:19.537Z,10.23
2023-05-16T01:50:00.345Z,6.50
2023-05-16T01:52:38.930Z,5.90
2023-05-16T01:55:11.112Z,7.20
2023-05-16T01:57:40.531Z,6.50
2023-05-16T02:00:08.830Z,7.13
2023-05-16T02:02:53.209Z,5.80
2023-05-16T02:05:20.752Z,6.65
2023-05-16T02:07:48.064Z,5.65
2023-05-16T02:10:15.420Z,5.77
2023-05-16T02:13:08.023Z,6.10
2023-05-16T02:15:38.120Z,6.70
2023-05-16T02:18:05.772Z,6.15
2023-05-16T02:20:36.083Z,5.95
2023-05-16T02:23:05.938Z,6.73
2023-05-16T02:25:33.045Z,9.10
2023-05-16T02:28:00.205Z,8.75
2023-05-16T02:30:27.666Z,7.50
2023-05-16T02:33:05.255Z,7.53
2023-05-16T02:35:32.467Z,10.33
2023-05-16T02:38:00.537Z,8.85
2023-05-16T02:40:27.677Z,7.30
2023-05-16T02:42:54.745Z,8.15
2023-05-16T02:45:21.856Z,7.82
2023-05-16T02:47:49.048Z,6.23
2023-05-16T02:50:16.149Z,7.78
2023-05-16T02:52:43.229Z,8.55
2023-05-16T02:55:21.685Z,9.27
2023-05-16T02:57:50.801Z,9.82
2023-05-16T03:00:18.845Z,8.63
2023-05-16T03:02:46.452Z,8.02
2023-05-16T03:05:13.856Z,9.27
2023-05-16T03:07:41.860Z,7.15
2023-05-16T03:10:09.480Z,7.75
2023-05-16T03:12:36.629Z,9.00
2023-05-16T03:15:05.022Z,8.15
2023-05-16T03:17:32.318Z,10.45
2023-05-16T03:19:59.655Z,8.13
2023-05-16T03:22:27.898Z,8.00
2023-05-16T03:24:54.936Z,8.10
2023-05-16T03:27:23.246Z,8.75
2023-05-16T03:29:50.285Z,8.27
2023-05-16T03:32:17.501Z,6.63
2023-05-16T03:34:44.463Z,5.80
2023-05-16T03:37:11.591Z,6.77
2023-05-16T03:39:38.690Z,6.10
2023-05-16T03:42:05.952Z,6.22
2023-05-16T03:44:33.129Z,6.40
2023-05-16T03:47:00.368Z,7.75
2023-05-16T03:49:30.626Z,6.83
2023-05-16T03:51:57.765Z,6.57
2023-05-16T03:54:24.839Z,6.90
2023-05-16T03:56:52.050Z,8.00
2023-05-16T03:59:19.185Z,6.88
2023-05-16T04:01:46.268Z,7.57
2023-05-16T04:04:14.286Z,9.35
2023-05-16T04:06:41.383Z,7.30
2023-05-16T04:09:09.786Z,7.25
2023-05-16T04:11:38.782Z,7.70
2023-05-16T04:14:05.915Z,8.60
2023-05-16T04:16:33.048Z,6.63
2023-05-16T04:19:00.191Z,6.07
2023-05-16T04:21:27.294Z,8.43
2023-05-16T04:23:54.370Z,9.02
2023-05-16T04:26:22.661Z,10.40
2023-05-16T04:28:49.604Z,9.93
2023-05-16T04:31:17.011Z,8.95
2023-05-16T04:33:44.069Z,10.85
2023-05-16T04:36:11.155Z,11.02
2023-05-16T04:38:38.166Z,10.23
2023-05-16T04:41:05.254Z,10.02
2023-05-16T04:43:32.340Z,8.40
2023-05-16T04:45:59.357Z,8.25
2023-05-16T04:48:26.371Z,7.47
2023-05-16T04:50:53.495Z,8.43
2023-05-16T04:53:20.498Z,8.10
2023-05-16T04:55:47.547Z,9.63
2023-05-16T04:58:14.499Z,6.97
2023-05-16T05:00:41.965Z,7.35
2023-05-16T05:03:09.130Z,6.37
2023-05-16T05:05:36.457Z,5.65
2023-05-16T05:08:04.626Z,6.43
2023-05-16T05:10:31.838Z,5.70
2023-05-16T05:12:58.920Z,7.22
2023-05-16T05:15:26.172Z,5.90
2023-05-16T05:17:56.845Z,5.50
2023-05-16T05:20:24.229Z,5.30
2023-05-16T05:22:51.238Z,5.97
2023-05-16T05:25:18.383Z,7.03
2023-05-16T05:27:45.440Z,5.83
2023-05-16T05:30:12.699Z,8.98
2023-05-16T05:32:42.207Z,7.15
2023-05-16T05:35:11.797Z,7.15
2023-05-16T05:37:38.736Z,5.93
2023-05-16T05:40:06.586Z,5.93
2023-05-16T05:42:33.975Z,6.10
2023-05-16T05:45:01.012Z,5.82
2023-05-16T05:47:28.187Z,6.65
2023-05-16T05:49:55.354Z,5.55
2023-05-16T05:52:22.318Z,5.37
2023-05-16T05:54:49.438Z,6.28
2023-05-16T05:57:16.428Z,8.07
2023-05-16T05:59:43.473Z,5.90
2023-05-16T06:02:13.201Z,6.20
2023-05-16T06:04:42.750Z,6.07
2023-05-16T06:07:09.831Z,4.03
2023-05-16T06:09:36.868Z,6.40
2023-05-16T06:12:04.365Z,5.35
2023-05-16T06:14:31.358Z,5.95
2023-05-16T06:16:58.744Z,6.13
2023-05-16T06:19:25.964Z,4.53
2023-05-16T06:21:53.026Z,7.05
2023-05-16T06:24:20.047Z,7.60
2023-05-16T06:26:50.215Z,5.85
2023-05-16T06:29:17.520Z,4.97
2023-05-16T06:31:46.468Z,5.65
2023-05-16T06:34:13.747Z,6.93
2023-05-16T06:36:40.892Z,6.70
2023-05-16T06:39:07.886Z,8.82
2023-05-16T06:41:34.877Z,13.10
2023-05-16T06:44:05.065Z,11.73
2023-05-16T06:46:32.890Z,8.57
2023-05-16T06:48:59.987Z,10.43
2023-05-16T06:51:27.020Z,9.93
2023-05-16T06:53:53.997Z,12.53
2023-05-16T06:56:21.701Z,13.70
2023-05-16T06:58:49.672Z,13.40
2023-05-16T07:01:17.246Z,10.02
2023-05-16T07:03:44.396Z,14.13
2023-05-16T07:06:11.667Z,11.37
2023-05-16T07:08:38.784Z,12.52
2023-05-16T07:11:05.942Z,11.30
2023-05-16T07:13:35.721Z,11.05
2023-05-16T07:16:03.914Z,9.77
2023-05-16T07:18:31.063Z,12.53
2023-05-16T07:20:58.392Z,10.48
2023-05-16T07:23:25.531Z,10.57
2023-05-16T07:25:53.413Z,10.43
2023-05-16T07:28:22.176Z,8.57
2023-05-16T07:30:49.228Z,8.67
2023-05-16T07:33:16.332Z,8.55
2023-05-16T07:35:43.842Z,10.73
2023-05-16T07:38:11.717Z,8.73
2023-05-16T07:40:38.840Z,10.27
2023-05-16T07:43:05.966Z,8.63
2023-05-16T07:45:33.040Z,9.65
2023-05-16T07:48:00.496Z,8.63
2023-05-16T07:50:27.708Z,7.72
2023-05-16T07:52:55.009Z,8.52
2023-05-16T07:55:22.305Z,7.17
2023-05-16T07:57:50.672Z,8.88
2023-05-16T08:00:18.615Z,9.07
2023-05-16T08:02:45.936Z,8.95
2023-05-16T08:05:13.071Z,11.13
2023-05-16T08:07:40.101Z,8.70
2023-05-16T08:10:11.785Z,8.30
2023-05-16T08:12:40.452Z,8.93
2023-05-16T08:15:08.245Z,9.15
2023-05-16T08:17:35.775Z,8.90
2023-05-16T08:20:04.234Z,8.27
2023-05-16T08:22:33.296Z,8.50
2023-05-16T08:25:00.850Z,8.48
2023-05-16T08:27:29.151Z,8.77
2023-05-16T08:29:56.327Z,8.93
2023-05-16T08:32:23.482Z,8.30
2023-05-16T08:34:50.761Z,9.20
2023-05-16T08:37:17.806Z,9.02
2023-05-16T08:39:45.023Z,8.73
2023-05-16T08:42:12.403Z,9.60
2023-05-16T08:44:39.771Z,8.13
2023-05-16T08:47:18.919Z,9.80
2023-05-16T08:49:48.565Z,10.77
2023-05-16T08:52:21.208Z,10.65
2023-05-16T08:55:05.642Z,9.50
2023-05-16T08:57:37.955Z,8.53
2023-05-16T09:00:13.434Z,9.05
2023-05-16T09:02:42.640Z,9.57
2023-05-16T09:05:12.437Z,9.75
2023-05-16T09:07:42.523Z,8.50
2023-05-16T09:10:10.481Z,10.50
2023-05-16T09:12:39.088Z,9.50
2023-05-16T09:15:07.928Z,10.23
2023-05-16T09:17:42.334Z,9.95
2023-05-16T09:20:20.399Z,9.70
2023-05-16T09:22:58.780Z,9.50
2023-05-16T09:25:31.993Z,10.05
2023-05-16T09:28:02.780Z,9.65
2023-05-16T09:30:34.376Z,9.48
2023-05-16T09:33:02.017Z,9.75
2023-05-16T09:37:59.776Z,9.10
2023-05-16T09:40:26.764Z,9.98
2023-05-16T09:43:08.498Z,8.85
2023-05-16T09:45:36.889Z,10.15
2023-05-16T09:48:09.000Z,11.83
2023-05-16T09:50:37.813Z,10.77
2023-05-16T09:53:05.756Z,9.75
2023-05-16T09:55:33.396Z,10.00
2023-05-16T09:58:00.589Z,8.82
2023-05-16T10:00:32.387Z,7.73
2023-05-16T10:03:04.283Z,8.02
2023-05-16T10:05:33.061Z,9.77
2023-05-16T10:08:02.655Z,10.43
2023-05-16T10:10:30.470Z,9.13
2023-05-16T10:13:01.673Z,10.00
2023-05-16T10:15:30.350Z,9.85
2023-05-16T10:18:02.018Z,11.77
2023-05-16T10:20:29.874Z,8.15
2023-05-16T10:22:58.225Z,9.65
2023-05-16T10:25:36.637Z,8.83
2023-05-16T10:28:07.244Z,8.27
2023-05-16T10:30:35.281Z,9.65
2023-05-16T10:33:04.441Z,9.35
2023-05-16T10:35:33.787Z,8.93
2023-05-16T10:38:01.728Z,11.57
2023-05-16T10:40:30.956Z,10.25
2023-05-16T10:43:03.884Z,8.88
2023-05-16T10:45:31.858Z,9.75
2023-05-16T10:48:01.304Z,8.98
2023-05-16T10:50:43.067Z,8.40
2023-05-16T10:53:20.306Z,7.50
2023-05-16T10:56:05.488Z,9.75
2023-05-16T10:58:38.649Z,11.05
2023-05-16T11:01:25.478Z,9.32
2023-05-16T11:04:13.052Z,8.87
2023-05-16T11:06:43.259Z,9.88
2023-05-16T11:09:16.266Z,9.20
2023-05-16T11:11:52.824Z,8.55
2023-05-16T11:14:27.287Z,10.13
2023-05-16T11:17:06.682Z,10.53
2023-05-16T11:19:48.451Z,10.25
2023-05-16T11:22:41.135Z,10.82
2023-05-16T11:25:10.668Z,9.95
2023-05-16T11:27:45.962Z,9.27
2023-05-16T11:30:17.728Z,10.30
2023-05-16T11:32:46.255Z,11.40
2023-05-16T11:35:15.979Z,11.05
2023-05-16T11:37:45.085Z,11.43
2023-05-16T11:40:13.777Z,9.18
2023-05-16T11:42:44.350Z,8.73
2023-05-16T11:45:14.972Z,9.15
2023-05-16T11:47:44.636Z,9.52
2023-05-16T11:50:13.967Z,10.32
2023-05-16T11:52:45.059Z,10.75
2023-05-16T11:55:15.593Z,9.97
2023-05-16T11:57:44.673Z,9.35
2023-05-16T12:00:17.075Z,9.07
2023-05-16T12:02:51.038Z,10.43
2023-05-16T12:05:20.869Z,11.90
2023-05-16T12:07:48.427Z,15.03
2023-05-16T12:10:16.956Z,13.18
2023-05-16T12:12:50.021Z,11.73
2023-05-16T12:15:17.600Z,10.43
2023-05-16T12:17:46.080Z,10.95
2023-05-16T12:20:14.731Z,14.63
2023-05-16T12:22:43.176Z,10.13
2023-05-16T12:25:27.738Z,8.35
2023-05-16T12:27:57.342Z,10.23
2023-05-16T12:30:25.709Z,8.50
2023-05-16T12:32:56.387Z,9.57
2023-05-16T12:35:25.106Z,12.38
2023-05-16T12:37:53.474Z,10.95
2023-05-16T12:40:20.950Z,9.85
2023-05-16T12:42:54.271Z,9.63
2023-05-16T12:45:23.498Z,11.27
2023-05-16T12:47:51.285Z,10.98
2023-05-16T12:50:18.464Z,11.23
2023-05-16T12:52:59.114Z,10.25
2023-05-16T12:55:27.068Z,10.30
2023-05-16T12:57:58.267Z,9.67
2023-05-16T13:00:25.677Z,9.77
2023-05-16T13:02:53.160Z,11.10
2023-05-16T13:05:22.229Z,13.50
2023-05-16T13:07:51.633Z,11.07
2023-05-16T13:10:19.496Z,9.60
2023-05-16T13:12:47.392Z,9.10
2023-05-16T13:15:15.308Z,10.68
2023-05-16T13:17:46.326Z,10.13
2023-05-16T13:20:15.993Z,8.90
2023-05-16T13:22:44.950Z,8.83
2023-05-16T13:25:12.487Z,9.85
2023-05-16T13:27:39.678Z,9.35
2023-05-16T13:30:07.513Z,9.13
2023-05-16T13:32:34.702Z,8.50
2023-05-16T13:35:06.944Z,8.93
2023-05-16T13:37:34.369Z,9.38
2023-05-16T13:40:01.637Z,9.32
2023-05-16T13:42:28.774Z,9.02
2023-05-16T13:44:55.792Z,8.52
2023-05-16T13:47:22.873Z,9.37
2023-05-16T13:49:50.116Z,10.27
2023-05-16T13:52:17.334Z,10.18
2023-05-16T13:54:44.387Z,10.30
2023-05-16T13:57:11.640Z,9.30
2023-05-16T14:00:03.958Z,9.80
2023-05-16T14:02:26.762Z,10.85
2023-05-16T14:04:54.145Z,10.30
2023-05-16T14:07:21.296Z,11.63
2023-05-16T14:09:48.300Z,12.80
2023-05-16T14:12:15.473Z,12.97
2023-05-16T14:14:42.568Z,12.65
2023-05-16T14:17:09.682Z,12.02
2023-05-16T14:19:36.811Z,14.98
2023-05-16T14:22:06.738Z,15.68
2023-05-16T14:24:34.312Z,14.60
2023-05-16T14:27:01.998Z,15.80
2023-05-16T14:29:29.340Z,14.75
2023-05-16T14:31:57.326Z,13.50
2023-05-16T14:34:24.383Z,16.15
2023-05-16T14:36:51.856Z,12.23
2023-05-16T14:39:19.009Z,15.05
2023-05-16T14:41:46.625Z,12.07
2023-05-16T14:44:13.791Z,14.88
2023-05-16T14:46:40.962Z,34.88
2023-05-16T14:49:09.243Z,28.00
2023-05-16T14:51:36.567Z,21.13
2023-05-16T14:54:05.516Z,23.65
2023-05-16T14:56:33.412Z,18.38
2023-05-16T14:59:00.596Z,15.13
2023-05-16T15:01:27.898Z,16.97
2023-05-16T15:03:56.588Z,17.50
2023-05-16T15:06:24.891Z,17.25
2023-05-16T15:08:52.125Z,16.45
2023-05-16T15:11:19.579Z,14.80
2023-05-16T15:13:46.914Z,14.27
2023-05-16T15:16:14.156Z,23.45
2023-05-16T15:18:41.811Z,20.63
2023-05-16T15:21:09.227Z,17.35
2023-05-16T15:23:36.795Z,15.85
2023-05-16T15:26:07.403Z,18.43
2023-05-16T15:28:34.663Z,22.25
2023-05-16T15:31:03.406Z,19.23
2023-05-16T15:33:30.442Z,25.00
2023-05-16T15:35:58.165Z,21.02
2023-05-16T15:38:25.393Z,29.40
2023-05-16T15:41:09.773Z,26.58
2023-05-16T15:43:40.656Z,23.85
2023-05-16T15:46:09.747Z,21.38
2023-05-16T15:48:37.769Z,21.08
2023-05-16T15:51:04.908Z,22.07
2023-05-16T15:53:31.989Z,24.75
2023-05-16T15:55:58.912Z,23.67
2023-05-16T15:58:25.987Z,26.00
2023-05-16T16:00:55.187Z,28.77
2023-05-16T16:03:22.500Z,23.80
2023-05-16T16:05:51.131Z,26.45
2023-05-16T16:08:20.045Z,26.70
2023-05-16T16:10:48.758Z,29.00
2023-05-16T16:13:15.804Z,32.72
2023-05-16T16:15:42.919Z,27.60
2023-05-16T16:18:11.720Z,28.27
2023-05-16T16:20:38.900Z,30.23
2023-05-16T16:23:05.973Z,28.70
2023-05-16T16:25:33.314Z,27.35
2023-05-16T16:28:00.810Z,25.67
2023-05-16T16:30:28.054Z,27.58
2023-05-16T16:32:55.179Z,24.88
2023-05-16T16:35:25.765Z,26.42
2023-05-16T16:38:05.744Z,23.50
2023-05-16T16:40:33.785Z,24.40
2023-05-16T16:43:01.440Z,27.77
2023-05-16T16:45:28.945Z,25.63
2023-05-16T16:47:56.771Z,24.15
2023-05-16T16:50:23.964Z,26.75
2023-05-16T16:52:51.240Z,25.80
2023-05-16T16:55:18.268Z,26.77
2023-05-16T16:57:45.777Z,29.15
2023-05-16T17:00:14.149Z,25.55
2023-05-16T17:02:41.641Z,25.88
2023-05-16T17:05:10.598Z,28.13
2023-05-16T17:07:37.852Z,30.77
2023-05-16T17:10:05.654Z,28.83
2023-05-16T17:12:34.670Z,28.73
2023-05-16T17:15:03.384Z,34.38
2023-05-16T17:17:30.478Z,39.37
2023-05-16T17:19:57.558Z,37.08
2023-05-16T17:22:24.674Z,37.22
2023-05-16T17:24:51.751Z,33.92
2023-05-16T17:27:19.072Z,32.38
2023-05-16T17:29:46.199Z,30.23
2023-05-16T17:32:13.214Z,29.85
2023-05-16T17:34:40.225Z,34.03
2023-05-16T17:37:07.387Z,28.80
2023-05-16T17:39:34.446Z,31.58
2023-05-16T17:42:02.690Z,33.03
2023-05-16T17:44:29.752Z,37.50
2023-05-16T17:46:57.208Z,34.53
2023-05-16T17:49:25.254Z,31.13
2023-05-16T17:51:54.277Z,32.63
2023-05-16T17:54:22.777Z,27.17
2023-05-16T17:56:50.984Z,27.20
2023-05-16T17:59:18.159Z,29.48
2023-05-16T18:01:45.363Z,26.63
2023-05-16T18:04:13.336Z,26.42
2023-05-16T18:06:41.114Z,23.33
2023-05-16T18:09:09.995Z,22.75
2023-05-16T18:11:39.564Z,22.70
2023-05-16T18:14:09.330Z,20.70
2023-05-16T18:16:36.868Z,22.10
2023-05-16T18:19:08.755Z,27.93
2023-05-16T18:21:37.596Z,22.73
2023-05-16T18:24:05.398Z,21.77
2023-05-16T18:26:32.494Z,25.83
2023-05-16T18:28:59.710Z,25.20
2023-05-16T18:31:26.843Z,26.60
2023-05-16T18:33:53.972Z,23.95
2023-05-16T18:36:21.077Z,25.23
2023-05-16T18:38:48.180Z,23.27
2023-05-16T18:41:15.895Z,23.35
2023-05-16T18:43:42.978Z,23.23
2023-05-16T18:46:10.174Z,26.15
2023-05-16T18:48:37.305Z,22.50
2023-05-16T18:51:04.422Z,24.75
2023-05-16T18:53:31.393Z,22.40
2023-05-16T18:55:58.855Z,21.43
2023-05-16T18:58:26.419Z,22.80
2023-05-16T19:00:53.514Z,23.27
2023-05-16T19:03:23.388Z,28.88
2023-05-16T19:05:53.770Z,26.98
2023-05-16T19:08:21.128Z,24.03
2023-05-16T19:10:48.213Z,24.65
2023-05-16T19:13:15.391Z,26.95
2023-05-16T19:15:42.449Z,28.38
2023-05-16T19:18:13.220Z,27.95
2023-05-16T19:20:40.778Z,29.00
2023-05-16T19:23:08.466Z,22.67
2023-05-16T19:25:35.683Z,25.35
2023-05-16T19:28:02.799Z,26.42
2023-05-16T19:30:30.298Z,22.13
2023-05-16T19:32:57.597Z,21.23
2023-05-16T19:35:24.922Z,19.20
2023-05-16T19:37:52.100Z,20.90
2023-05-16T19:40:19.175Z,21.88
2023-05-16T19:42:46.499Z,20.98
2023-05-16T19:45:13.648Z,21.37
2023-05-16T19:47:40.956Z,21.80
2023-05-16T19:50:09.041Z,23.27
2023-05-16T19:52:36.503Z,21.90
2023-05-16T19:55:04.729Z,21.83
2023-05-16T19:57:31.848Z,25.87
2023-05-16T19:59:58.982Z,22.25
2023-05-16T20:02:26.257Z,22.13
2023-05-16T20:04:53.327Z,17.42
2023-05-16T20:07:20.763Z,19.60
2023-05-16T20:09:47.943Z,22.47
2023-05-16T20:12:15.427Z,20.83
2023-05-16T20:14:42.481Z,19.83
2023-05-16T20:17:09.589Z,23.27
2023-05-16T20:19:37.642Z,21.70
2023-05-16T20:22:04.969Z,23.63
2023-05-16T20:24:32.044Z,22.25
2023-05-16T20:26:59.184Z,24.02
2023-05-16T20:29:26.539Z,21.90
2023-05-16T20:31:53.723Z,25.85
2023-05-16T20:34:20.746Z,20.03
2023-05-16T20:36:47.997Z,23.80
2023-05-16T20:39:18.067Z,25.85
2023-05-16T20:41:45.171Z,21.63
2023-05-16T20:44:12.207Z,20.25
2023-05-16T20:46:40.556Z,22.70
2023-05-16T20:49:07.614Z,19.00
2023-05-16T20:51:34.696Z,18.80
2023-05-16T20:54:01.872Z,16.92
2023-05-16T20:56:29.045Z,17.30
2023-05-16T20:58:55.998Z,20.17
2023-05-16T21:01:23.071Z,20.33
2023-05-16T21:03:50.361Z,17.58
2023-05-16T21:06:17.629Z,20.08
2023-05-16T21:08:44.699Z,21.02
2023-05-16T21:11:11.823Z,21.33
2023-05-16T21:13:38.845Z,21.40
2023-05-16T21:16:06.309Z,24.67
2023-05-16T21:18:33.464Z,23.17
2023-05-16T21:21:00.659Z,20.80
2023-05-16T21:23:27.797Z,23.57
2023-05-16T21:25:54.873Z,23.90
2023-05-16T21:28:21.833Z,20.58
2023-05-16T21:30:49.094Z,20.60
2023-05-16T21:33:16.381Z,19.63
2023-05-16T21:35:43.517Z,18.63
2023-05-16T21:38:10.563Z,20.77
2023-05-16T21:40:37.707Z,19.08
2023-05-16T21:43:04.853Z,19.05
2023-05-16T21:45:31.914Z,20.17
2023-05-16T21:47:59.055Z,19.47
2023-05-16T21:50:26.173Z,17.63
2023-05-16T21:52:53.165Z,20.50
2023-05-16T21:55:20.215Z,28.50
2023-05-16T21:57:47.321Z,22.33
2023-05-16T22:00:15.008Z,19.67
2023-05-16T22:02:42.158Z,23.27
2023-05-16T22:05:09.796Z,23.77
2023-05-16T22:07:37.302Z,23.10
2023-05-16T22:10:05.103Z,22.08
2023-05-16T22:12:32.254Z,22.63
2023-05-16T22:14:59.402Z,28.13
2023-05-16T22:17:26.603Z,24.95
2023-05-16T22:19:54.160Z,24.55
2023-05-16T22:22:21.270Z,26.98
2023-05-16T22:24:48.412Z,26.13
2023-05-16T22:27:15.561Z,23.38
2023-05-16T22:29:42.636Z,27.42
2023-05-16T22:32:10.466Z,24.25
2023-05-16T22:34:40.858Z,24.08
2023-05-16T22:37:09.428Z,25.67
2023-05-16T22:39:36.697Z,20.92
2023-05-16T22:42:06.692Z,18.90
2023-05-16T22:44:33.800Z,20.17
2023-05-16T22:47:00.900Z,20.88
2023-05-16T22:49:27.915Z,18.97
2023-05-16T22:51:54.922Z,18.27
2023-05-16T22:54:21.980Z,18.70
2023-05-16T22:56:48.969Z,20.55
2023-05-16T22:59:16.076Z,19.75
2023-05-16T23:01:43.170Z,18.17
2023-05-16T23:04:10.477Z,18.63
2023-05-16T23:06:37.595Z,17.05
2023-05-16T23:09:04.912Z,17.05
2023-05-16T23:11:32.654Z,19.17
2023-05-16T23:13:59.967Z,21.97
2023-05-16T23:16:26.989Z,19.10
2023-05-16T23:18:54.144Z,20.58
2023-05-16T23:21:21.311Z,21.15
2023-05-16T23:23:50.488Z,20.63
2023-05-16T23:26:17.439Z,21.73
2023-05-16T23:28:44.480Z,16.05
2023-05-16T23:31:11.524Z,13.82
2023-05-16T23:33:38.728Z,15.30
2023-05-16T23:36:06.314Z,14.25
2023-05-16T23:38:33.307Z,13.83
2023-05-16T23:41:00.606Z,10.73
2023-05-16T23:43:27.746Z,11.95
2023-05-16T23:45:54.799Z,13.52
2023-05-16T23:48:21.963Z,14.23
2023-05-16T23:50:49.040Z,12.43
2023-05-16T23:53:16.801Z,13.85
2023-05-16T23:55:43.825Z,14.32
2023-05-16T23:58:12.165Z,14.88
